createdAt,value
2019-05-22T00:00:05.362Z,68.08
2019-05-22T00:02:38.966Z,67.82
2019-05-22T00:05:24.392Z,67.96
2019-05-22T00:07:55.311Z,68.14
2019-05-22T00:10:28.759Z,67.99
2019-05-22T00:12:59.911Z,67.92
2019-05-22T00:15:31.924Z,69.21
2019-05-22T00:18:03.571Z,68.93
2019-05-22T00:20:34.030Z,68.58
2019-05-22T00:23:07.500Z,68.27
2019-05-22T00:25:37.844Z,68.65
2019-05-22T00:28:08.243Z,67.96
2019-05-22T00:30:40.014Z,67.56
2019-05-22T00:33:12.490Z,67.31
2019-05-22T00:35:45.400Z,67.55
2019-05-22T00:38:16.088Z,67.67
2019-05-22T00:40:51.327Z,68.30
2019-05-22T00:43:30.015Z,68.23
2019-05-22T00:46:04.960Z,67.77
2019-05-22T00:48:36.069Z,67.20
2019-05-22T00:51:22.216Z,66.58
2019-05-22T00:54:08.222Z,66.22
2019-05-22T00:56:51.657Z,66.25
2019-05-22T00:59:32.039Z,66.68
2019-05-22T01:02:03.357Z,67.05
2019-05-22T01:04:38.836Z,68.24
2019-05-22T01:07:16.452Z,68.21
2019-05-22T01:09:48.444Z,68.04
2019-05-22T01:12:26.964Z,68.64
2019-05-22T01:15:03.740Z,69.19
2019-05-22T01:17:36.752Z,69.08
2019-05-22T01:20:14.690Z,69.09
2019-05-22T01:22:47.413Z,68.58
2019-05-22T01:25:22.113Z,67.99
2019-05-22T01:27:52.558Z,68.17
2019-05-22T01:30:42.056Z,67.82
2019-05-22T01:33:17.092Z,67.66
2019-05-22T01:36:07.284Z,67.74
2019-05-22T01:38:40.432Z,67.86
2019-05-22T01:41:18.273Z,67.90
2019-05-22T01:43:51.357Z,68.09
2019-05-22T01:46:22.696Z,68.21
2019-05-22T01:48:56.894Z,68.13
2019-05-22T01:51:27.704Z,68.25
2019-05-22T01:53:58.413Z,68.49
2019-05-22T01:56:30.221Z,68.42
2019-05-22T01:59:00.376Z,68.24
2019-05-22T02:01:32.396Z,68.15
2019-05-22T02:04:04.346Z,68.07
2019-05-22T02:06:36.660Z,68.06
2019-05-22T02:09:28.745Z,67.92
2019-05-22T02:12:07.981Z,67.72
2019-05-22T02:14:41.590Z,67.79
2019-05-22T02:17:13.226Z,68.11
2019-05-22T02:19:44.443Z,68.29
2019-05-22T02:22:15.488Z,68.32
2019-05-22T02:24:50.130Z,67.97
2019-05-22T02:27:22.145Z,67.60
2019-05-22T02:29:55.087Z,67.75
2019-05-22T02:32:25.714Z,68.13
2019-05-22T02:34:56.625Z,68.12
2019-05-22T02:37:28.713Z,68.16
2019-05-22T02:39:59.042Z,68.38
2019-05-22T02:42:30.957Z,68.36
2019-05-22T02:45:01.622Z,68.32
2019-05-22T02:47:31.823Z,68.32
2019-05-22T02:50:02.302Z,68.05
2019-05-22T02:52:32.914Z,67.65
2019-05-22T02:55:04.030Z,66.97
2019-05-22T02:57:35.239Z,67.26
2019-05-22T03:00:07.461Z,67.11
2019-05-22T03:02:44.780Z,66.57
2019-05-22T03:05:15.220Z,66.12
2019-05-22T03:07:47.192Z,67.02
2019-05-22T03:10:18.627Z,66.91
2019-05-22T03:12:51.438Z,67.35
2019-05-22T03:15:24.273Z,67.63
2019-05-22T03:18:04.944Z,67.54
2019-05-22T03:20:37.584Z,67.19
2019-05-22T03:23:38.682Z,66.97
2019-05-22T03:26:11.205Z,67.19
2019-05-22T03:28:43.133Z,66.97
2019-05-22T03:31:13.817Z,67.28
2019-05-22T03:33:44.499Z,67.70
2019-05-22T03:36:21.246Z,68.20
2019-05-22T03:38:51.708Z,68.26
2019-05-22T03:41:22.657Z,68.05
2019-05-22T03:43:53.431Z,68.20
2019-05-22T03:46:44.768Z,68.22
2019-05-22T03:49:29.868Z,67.96
2019-05-22T03:51:52.584Z,68.33
2019-05-22T03:54:24.194Z,68.24
2019-05-22T03:56:55.913Z,66.75
2019-05-22T03:59:26.268Z,66.64
2019-05-22T04:01:58.027Z,67.15
2019-05-22T04:04:37.096Z,68.13
2019-05-22T04:07:10.867Z,69.21
2019-05-22T04:09:42.883Z,68.81
2019-05-22T04:12:13.289Z,68.89
2019-05-22T04:14:43.414Z,69.19
2019-05-22T04:17:14.637Z,69.27
2019-05-22T04:19:50.527Z,69.39
2019-05-22T04:22:18.198Z,69.94
2019-05-22T04:24:49.016Z,69.31
2019-05-22T04:27:20.382Z,69.34
2019-05-22T04:29:52.553Z,69.71
2019-05-22T04:32:35.119Z,70.37
2019-05-22T04:35:08.754Z,69.74
2019-05-22T04:37:39.588Z,69.67
2019-05-22T04:40:49.684Z,70.21
2019-05-22T04:43:25.045Z,70.54
2019-05-22T04:45:57.003Z,70.97
2019-05-22T04:48:29.339Z,70.80
2019-05-22T04:51:05.348Z,70.90
2019-05-22T04:53:35.595Z,70.68
2019-05-22T04:56:05.899Z,70.74
2019-05-22T04:58:36.199Z,69.97
2019-05-22T05:01:08.191Z,69.19
2019-05-22T05:03:38.699Z,68.50
2019-05-22T05:06:09.015Z,67.03
2019-05-22T05:08:40.630Z,67.49
2019-05-22T05:11:10.775Z,67.09
2019-05-22T05:13:41.027Z,66.62
2019-05-22T05:16:11.162Z,65.96
2019-05-22T05:18:41.410Z,65.93
2019-05-22T05:21:11.635Z,65.79
2019-05-22T05:23:42.797Z,64.31
2019-05-22T05:26:12.964Z,63.98
2019-05-22T05:28:43.822Z,64.25
2019-05-22T05:31:14.714Z,63.72
2019-05-22T05:34:17.763Z,63.26
2019-05-22T05:36:49.342Z,62.81
2019-05-22T05:40:09.945Z,62.14
2019-05-22T05:42:40.282Z,61.67
2019-05-22T05:45:13.562Z,62.10
2019-05-22T05:47:44.573Z,61.28
2019-05-22T05:50:16.433Z,60.59
2019-05-22T05:52:48.065Z,60.64
2019-05-22T05:55:19.303Z,60.29
2019-05-22T05:58:26.483Z,59.53
2019-05-22T06:01:03.422Z,59.17
2019-05-22T06:03:37.790Z,58.24
2019-05-22T06:06:51.873Z,57.84
2019-05-22T06:09:22.915Z,57.48
2019-05-22T06:11:55.878Z,57.07
2019-05-22T06:14:29.708Z,56.95
2019-05-22T06:18:05.756Z,56.61
2019-05-22T06:20:38.276Z,56.26
2019-05-22T06:23:50.053Z,55.68
2019-05-22T06:26:48.065Z,55.96
2019-05-22T06:29:21.857Z,55.57
2019-05-22T06:32:34.566Z,55.04
2019-05-22T06:35:05.300Z,54.31
2019-05-22T06:37:42.606Z,53.97
2019-05-22T06:40:14.725Z,53.73
2019-05-22T06:42:48.082Z,53.80
2019-05-22T06:45:18.376Z,53.50
2019-05-22T06:47:48.714Z,53.15
2019-05-22T06:50:19.373Z,53.42
2019-05-22T06:52:49.548Z,53.08
2019-05-22T06:55:19.764Z,52.74
2019-05-22T06:57:50.094Z,52.00
2019-05-22T07:00:22.829Z,51.42
2019-05-22T07:02:53.097Z,52.03
2019-05-22T07:05:24.634Z,52.53
2019-05-22T07:07:55.244Z,52.25
2019-05-22T07:10:26.177Z,51.09
2019-05-22T07:12:57.790Z,50.44
2019-05-22T07:15:36.765Z,49.67
2019-05-22T07:18:12.449Z,49.72
2019-05-22T07:20:41.983Z,49.92
2019-05-22T07:23:16.866Z,49.77
2019-05-22T07:25:47.724Z,49.36
2019-05-22T07:28:20.540Z,48.73
2019-05-22T07:30:51.585Z,47.80
2019-05-22T07:33:22.985Z,45.39
2019-05-22T07:36:08.348Z,45.25
2019-05-22T07:38:25.198Z,45.99
2019-05-22T07:40:56.304Z,46.16
2019-05-22T07:43:27.188Z,45.72
2019-05-22T07:45:57.843Z,45.53
2019-05-22T07:48:29.698Z,45.42
2019-05-22T07:51:00.238Z,44.70
2019-05-22T07:53:30.851Z,44.98
2019-05-22T07:56:03.372Z,44.32
2019-05-22T07:58:34.602Z,44.00
2019-05-22T08:01:05.018Z,43.52
2019-05-22T08:03:35.839Z,42.76
2019-05-22T08:06:08.559Z,42.66
2019-05-22T08:08:41.604Z,43.00
2019-05-22T08:11:13.537Z,42.07
2019-05-22T08:13:45.230Z,42.74
2019-05-22T08:16:16.841Z,43.19
2019-05-22T08:18:46.968Z,43.05
2019-05-22T08:21:17.651Z,42.97
2019-05-22T08:23:48.258Z,42.66
2019-05-22T08:26:19.321Z,41.63
2019-05-22T08:28:49.501Z,40.71
2019-05-22T08:31:20.800Z,39.56
2019-05-22T08:33:51.776Z,40.56
2019-05-22T08:36:22.639Z,40.29
2019-05-22T08:38:53.701Z,39.83
2019-05-22T08:41:28.109Z,39.22
2019-05-22T08:44:15.325Z,40.26
2019-05-22T08:46:33.883Z,41.86
2019-05-22T08:49:04.962Z,41.78
2019-05-22T08:51:35.124Z,41.31
2019-05-22T08:54:07.595Z,42.34
2019-05-22T08:56:39.403Z,40.96
2019-05-22T08:59:19.593Z,40.10
2019-05-22T09:01:42.747Z,38.92
2019-05-22T09:04:13.200Z,39.02
2019-05-22T09:06:43.430Z,39.94
2019-05-22T09:09:13.584Z,38.70
2019-05-22T09:11:43.715Z,38.38
2019-05-22T09:14:13.863Z,38.47
2019-05-22T09:16:44.576Z,38.47
2019-05-22T09:19:15.079Z,38.05
2019-05-22T09:21:45.656Z,37.84
2019-05-22T09:24:17.458Z,36.59
2019-05-22T09:26:48.549Z,37.29
2019-05-22T09:29:19.827Z,37.79
2019-05-22T09:31:50.244Z,37.68
2019-05-22T09:34:20.749Z,38.15
2019-05-22T09:36:51.104Z,39.21
2019-05-22T09:39:21.221Z,39.90
2019-05-22T09:41:52.713Z,41.07
2019-05-22T09:44:23.338Z,40.07
2019-05-22T09:46:53.455Z,39.75
2019-05-22T09:49:24.395Z,39.87
2019-05-22T09:51:54.937Z,41.14
2019-05-22T09:54:25.191Z,40.43
2019-05-22T09:56:55.413Z,40.21
2019-05-22T09:59:25.896Z,39.92
2019-05-22T10:01:56.029Z,39.14
2019-05-22T10:04:26.568Z,37.14
2019-05-22T10:06:56.801Z,38.01
2019-05-22T10:09:27.610Z,38.81
2019-05-22T10:11:57.750Z,39.49
2019-05-22T10:14:27.977Z,39.08
2019-05-22T10:16:58.363Z,39.05
2019-05-22T10:19:30.404Z,39.46
2019-05-22T10:22:01.083Z,39.78
2019-05-22T10:24:31.213Z,40.48
2019-05-22T10:27:01.967Z,40.61
2019-05-22T10:29:32.829Z,40.98
2019-05-22T10:32:03.364Z,41.62
2019-05-22T10:34:34.023Z,42.16
2019-05-22T10:37:05.839Z,40.58
2019-05-22T10:39:36.974Z,41.03
2019-05-22T10:42:07.403Z,40.23
2019-05-22T10:44:37.988Z,40.33
2019-05-22T10:47:09.888Z,40.58
2019-05-22T10:49:40.452Z,41.70
2019-05-22T10:52:10.729Z,40.89
2019-05-22T10:54:40.864Z,41.12
2019-05-22T10:57:11.371Z,41.98
2019-05-22T10:59:41.530Z,40.87
2019-05-22T11:02:12.025Z,41.49
2019-05-22T11:04:42.991Z,42.27
2019-05-22T11:07:13.998Z,42.37
2019-05-22T11:09:45.152Z,41.27
2019-05-22T11:12:16.369Z,41.52
2019-05-22T11:14:47.808Z,41.09
2019-05-22T11:17:18.616Z,41.41
2019-05-22T11:19:49.165Z,41.93
2019-05-22T11:22:19.587Z,40.96
2019-05-22T11:24:50.024Z,40.42
2019-05-22T11:27:20.155Z,40.95
2019-05-22T11:29:51.582Z,41.98
2019-05-22T11:32:21.709Z,41.63
2019-05-22T11:34:51.853Z,41.74
2019-05-22T11:37:22.031Z,42.12
2019-05-22T11:39:52.837Z,42.27
2019-05-22T11:42:23.843Z,41.06
2019-05-22T11:44:55.441Z,40.61
2019-05-22T11:47:25.613Z,40.99
2019-05-22T11:49:55.947Z,40.83
2019-05-22T11:52:27.525Z,41.20
2019-05-22T11:54:57.656Z,41.19
2019-05-22T11:57:28.771Z,40.98
2019-05-22T11:59:59.459Z,41.45
2019-05-22T12:02:29.691Z,42.10
2019-05-22T12:05:00.218Z,42.51
2019-05-22T12:07:30.551Z,42.29
2019-05-22T12:10:00.704Z,42.05
2019-05-22T12:12:35.004Z,41.84
2019-05-22T12:15:03.943Z,41.24
2019-05-22T12:17:37.999Z,41.70
2019-05-22T12:20:06.770Z,41.64
2019-05-22T12:22:37.225Z,41.50
2019-05-22T12:25:08.848Z,41.02
2019-05-22T12:27:40.442Z,40.80
2019-05-22T12:30:13.669Z,41.40
2019-05-22T12:32:45.810Z,41.86
2019-05-22T12:35:18.815Z,41.83
2019-05-22T12:37:49.174Z,42.80
2019-05-22T12:40:22.042Z,43.16
2019-05-22T12:42:53.074Z,43.14
2019-05-22T12:45:29.722Z,43.13
2019-05-22T12:48:01.769Z,42.42
2019-05-22T12:50:31.945Z,42.51
2019-05-22T12:53:04.588Z,42.73
2019-05-22T12:55:35.198Z,41.74
2019-05-22T12:58:07.048Z,42.32
2019-05-22T13:00:37.901Z,42.40
2019-05-22T13:03:09.094Z,43.20
2019-05-22T13:05:40.447Z,43.04
2019-05-22T13:08:11.417Z,41.73
2019-05-22T13:10:43.376Z,42.78
2019-05-22T13:13:13.519Z,42.78
2019-05-22T13:15:45.251Z,43.49
2019-05-22T13:18:18.740Z,42.96
2019-05-22T13:20:51.182Z,42.96
2019-05-22T13:23:26.617Z,43.63
2019-05-22T13:25:57.670Z,44.13
2019-05-22T13:28:30.527Z,43.88
2019-05-22T13:31:01.651Z,43.33
2019-05-22T13:33:33.097Z,44.02
2019-05-22T13:36:03.608Z,43.66
2019-05-22T13:38:33.753Z,44.03
2019-05-22T13:41:04.688Z,43.98
2019-05-22T13:43:35.839Z,44.76
2019-05-22T13:46:07.349Z,44.55
2019-05-22T13:48:37.697Z,44.80
2019-05-22T13:51:08.662Z,44.98
2019-05-22T13:53:39.361Z,45.01
2019-05-22T13:56:10.249Z,44.71
2019-05-22T13:58:41.657Z,44.56
2019-05-22T14:01:11.900Z,44.76
2019-05-22T14:03:42.245Z,44.66
2019-05-22T14:06:12.863Z,45.07
2019-05-22T14:08:43.260Z,44.84
2019-05-22T14:11:13.436Z,44.77
2019-05-22T14:13:43.657Z,44.49
2019-05-22T14:16:14.463Z,44.39
2019-05-22T14:18:47.097Z,44.64
2019-05-22T14:21:17.506Z,45.18
2019-05-22T14:23:47.755Z,44.84
2019-05-22T14:26:17.921Z,44.90
2019-05-22T14:28:48.849Z,44.98
2019-05-22T14:31:19.029Z,44.93
2019-05-22T14:33:49.690Z,44.83
2019-05-22T14:36:20.736Z,45.54
2019-05-22T14:38:52.200Z,45.74
2019-05-22T14:41:22.559Z,45.77
2019-05-22T14:43:52.806Z,45.41
2019-05-22T14:46:22.982Z,44.57
2019-05-22T14:48:53.111Z,44.43
2019-05-22T14:51:25.580Z,44.41
2019-05-22T14:53:57.545Z,45.63
2019-05-22T14:56:28.832Z,45.84
2019-05-22T14:58:59.176Z,45.88
2019-05-22T15:01:29.477Z,45.98
2019-05-22T15:03:59.686Z,46.16
2019-05-22T15:06:30.974Z,45.69
2019-05-22T15:09:01.140Z,45.73
2019-05-22T15:11:32.662Z,46.41
2019-05-22T15:14:02.991Z,46.35
2019-05-22T15:16:33.478Z,46.37
2019-05-22T15:19:03.736Z,46.12
2019-05-22T15:21:34.491Z,46.06
2019-05-22T15:24:05.596Z,45.47
2019-05-22T15:26:35.740Z,45.75
2019-05-22T15:29:05.987Z,46.15
2019-05-22T15:31:36.197Z,46.31
2019-05-22T15:34:06.606Z,46.59
2019-05-22T15:36:37.573Z,46.58
2019-05-22T15:39:08.801Z,46.79
2019-05-22T15:41:39.774Z,46.75
2019-05-22T15:44:11.194Z,46.78
2019-05-22T15:46:42.975Z,47.07
2019-05-22T15:49:15.303Z,47.16
2019-05-22T15:51:47.102Z,47.70
2019-05-22T15:54:19.471Z,48.34
2019-05-22T15:56:50.238Z,48.17
2019-05-22T15:59:22.352Z,48.18
2019-05-22T16:01:53.654Z,48.44
2019-05-22T16:04:25.012Z,48.33
2019-05-22T16:06:56.877Z,48.75
2019-05-22T16:09:29.245Z,48.59
2019-05-22T16:11:59.598Z,48.70
2019-05-22T16:14:33.306Z,48.59
2019-05-22T16:17:03.933Z,48.93
2019-05-22T16:19:39.159Z,49.29
2019-05-22T16:22:10.836Z,49.26
2019-05-22T16:24:42.736Z,49.32
2019-05-22T16:27:16.373Z,49.50
2019-05-22T16:29:48.314Z,49.65
2019-05-22T16:32:22.004Z,50.06
2019-05-22T16:34:52.704Z,50.09
2019-05-22T16:37:23.032Z,50.49
2019-05-22T16:39:53.181Z,50.48
2019-05-22T16:42:23.767Z,50.52
2019-05-22T16:44:54.104Z,50.67
2019-05-22T16:47:25.368Z,50.31
2019-05-22T16:49:55.766Z,50.50
2019-05-22T16:52:28.349Z,50.61
2019-05-22T16:54:59.681Z,50.56
2019-05-22T16:57:32.307Z,50.65
2019-05-22T17:00:03.010Z,50.77
2019-05-22T17:02:36.520Z,51.17
2019-05-22T17:05:08.652Z,50.74
2019-05-22T17:07:41.274Z,50.71
2019-05-22T17:10:13.469Z,50.63
2019-05-22T17:12:45.703Z,50.79
2019-05-22T17:15:17.038Z,50.85
2019-05-22T17:17:48.411Z,50.84
2019-05-22T17:20:22.325Z,51.13
2019-05-22T17:22:52.601Z,51.22
2019-05-22T17:25:22.732Z,51.22
2019-05-22T17:27:53.477Z,51.45
2019-05-22T17:30:25.896Z,50.97
2019-05-22T17:32:57.459Z,50.82
2019-05-22T17:35:29.626Z,51.20
2019-05-22T17:38:00.155Z,50.78
2019-05-22T17:40:31.949Z,51.31
2019-05-22T17:43:05.053Z,51.89
2019-05-22T17:45:36.383Z,51.85
2019-05-22T17:48:07.564Z,52.59
2019-05-22T17:50:37.805Z,52.57
2019-05-22T17:53:08.126Z,52.80
2019-05-22T17:55:39.571Z,53.32
2019-05-22T17:58:10.256Z,53.61
2019-05-22T18:00:44.328Z,53.44
2019-05-22T18:03:16.822Z,53.64
2019-05-22T18:05:47.285Z,54.18
2019-05-22T18:08:17.840Z,54.09
2019-05-22T18:10:50.255Z,54.50
2019-05-22T18:13:21.097Z,54.93
2019-05-22T18:15:51.341Z,55.13
2019-05-22T18:18:21.891Z,55.26
2019-05-22T18:20:52.533Z,55.21
2019-05-22T18:23:22.927Z,55.37
2019-05-22T18:25:53.086Z,55.04
2019-05-22T18:28:23.311Z,54.78
2019-05-22T18:30:53.684Z,54.45
2019-05-22T18:33:23.815Z,54.33
2019-05-22T18:35:54.141Z,54.10
2019-05-22T18:38:24.529Z,53.89
2019-05-22T18:40:54.676Z,53.87
2019-05-22T18:43:24.920Z,54.36
2019-05-22T18:45:55.074Z,54.57
2019-05-22T18:48:25.450Z,54.31
2019-05-22T18:50:55.600Z,54.29
2019-05-22T18:53:27.060Z,54.63
2019-05-22T18:55:57.194Z,54.84
2019-05-22T18:58:27.516Z,55.67
2019-05-22T19:00:57.935Z,56.44
2019-05-22T19:03:28.136Z,57.15
2019-05-22T19:05:58.652Z,57.44
2019-05-22T19:08:29.024Z,57.58
2019-05-22T19:11:01.179Z,57.73
2019-05-22T19:13:31.524Z,57.24
2019-05-22T19:16:03.669Z,56.57
2019-05-22T19:18:34.078Z,56.22
2019-05-22T19:21:04.823Z,55.76
2019-05-22T19:23:35.100Z,55.58
2019-05-22T19:26:05.943Z,56.09
2019-05-22T19:28:43.316Z,55.92
2019-05-22T19:31:10.679Z,55.77
2019-05-22T19:33:40.944Z,55.96
2019-05-22T19:36:11.121Z,56.05
2019-05-22T19:38:41.825Z,56.10
2019-05-22T19:41:12.449Z,56.10
2019-05-22T19:43:43.270Z,56.39
2019-05-22T19:46:13.531Z,56.93
2019-05-22T19:48:43.857Z,57.11
2019-05-22T19:51:18.437Z,57.30
2019-05-22T19:53:49.488Z,57.81
2019-05-22T19:56:23.597Z,58.16
2019-05-22T19:58:52.700Z,59.22
2019-05-22T20:01:23.326Z,59.45
2019-05-22T20:03:53.489Z,58.90
2019-05-22T20:06:23.678Z,58.82
2019-05-22T20:08:54.791Z,58.86
2019-05-22T20:11:25.013Z,58.47
2019-05-22T20:13:55.443Z,58.74
2019-05-22T20:16:26.031Z,58.92
2019-05-22T20:18:58.168Z,58.55
2019-05-22T20:21:28.972Z,58.54
2019-05-22T20:23:59.365Z,58.09
2019-05-22T20:26:29.756Z,57.96
2019-05-22T20:29:01.572Z,57.88
2019-05-22T20:31:31.812Z,58.14
2019-05-22T20:34:01.933Z,58.80
2019-05-22T20:36:32.785Z,58.85
2019-05-22T20:39:03.643Z,58.83
2019-05-22T20:41:34.080Z,59.70
2019-05-22T20:44:06.108Z,60.27
2019-05-22T20:46:37.997Z,59.77
2019-05-22T20:49:10.151Z,59.58
2019-05-22T20:51:41.280Z,59.39
2019-05-22T20:54:13.069Z,59.35
2019-05-22T20:56:46.807Z,59.55
2019-05-22T20:59:16.992Z,59.16
2019-05-22T21:01:47.492Z,58.93
2019-05-22T21:04:19.995Z,58.90
2019-05-22T21:06:59.827Z,59.37
2019-05-22T21:09:29.877Z,59.72
2019-05-22T21:12:00.571Z,59.90
2019-05-22T21:14:30.828Z,59.80
2019-05-22T21:17:03.190Z,59.99
2019-05-22T21:19:33.911Z,59.82
2019-05-22T21:22:04.166Z,59.49
2019-05-22T21:24:36.473Z,59.41
2019-05-22T21:27:07.453Z,59.67
2019-05-22T21:29:39.343Z,59.80
2019-05-22T21:32:10.621Z,59.60
2019-05-22T21:34:41.444Z,59.86
2019-05-22T21:37:12.070Z,59.65
2019-05-22T21:39:43.272Z,59.68
2019-05-22T21:42:13.990Z,59.83
2019-05-22T21:44:44.421Z,60.35
2019-05-22T21:47:14.753Z,60.58
2019-05-22T21:49:45.949Z,60.27
2019-05-22T21:52:16.201Z,60.23
2019-05-22T21:54:46.671Z,60.22
2019-05-22T21:57:18.503Z,60.74
2019-05-22T21:59:48.913Z,60.50
2019-05-22T22:02:26.844Z,60.23
2019-05-22T22:04:56.977Z,59.94
2019-05-22T22:07:27.474Z,59.70
2019-05-22T22:09:58.115Z,59.95
2019-05-22T22:12:28.435Z,60.34
2019-05-22T22:15:00.142Z,60.79
2019-05-22T22:17:31.140Z,60.37
2019-05-22T22:20:02.143Z,60.22
2019-05-22T22:22:33.630Z,60.17
2019-05-22T22:25:04.540Z,60.28
2019-05-22T22:27:35.060Z,60.88
2019-05-22T22:30:10.450Z,59.95
2019-05-22T22:32:40.771Z,59.63
2019-05-22T22:35:13.845Z,60.28
2019-05-22T22:37:44.816Z,60.94
2019-05-22T22:40:17.889Z,60.46
2019-05-22T22:42:49.656Z,59.61
2019-05-22T22:45:27.695Z,59.31
2019-05-22T22:47:59.034Z,59.47
2019-05-22T22:50:29.392Z,59.58
2019-05-22T22:53:00.819Z,59.57
2019-05-22T22:55:32.524Z,59.31
2019-05-22T22:58:16.057Z,59.46
2019-05-22T23:00:38.109Z,60.13
2019-05-22T23:03:12.939Z,60.58
2019-05-22T23:05:44.609Z,61.33
2019-05-22T23:08:19.925Z,61.78
2019-05-22T23:10:50.980Z,61.14
2019-05-22T23:13:23.531Z,60.28
2019-05-22T23:15:54.591Z,60.00
2019-05-22T23:19:06.765Z,60.06
2019-05-22T23:21:36.911Z,60.30
2019-05-22T23:24:07.010Z,59.43
2019-05-22T23:26:38.526Z,59.43
2019-05-22T23:29:09.369Z,59.83
2019-05-22T23:31:40.342Z,60.07
2019-05-22T23:34:11.575Z,60.31
2019-05-22T23:36:42.607Z,59.76
2019-05-22T23:39:15.110Z,59.87
2019-05-22T23:41:46.658Z,60.26
2019-05-22T23:44:21.506Z,60.42
2019-05-22T23:46:51.615Z,60.58
2019-05-22T23:49:21.843Z,60.36
2019-05-22T23:51:53.192Z,60.26
2019-05-22T23:54:23.717Z,59.93
2019-05-22T23:56:54.046Z,59.88
2019-05-22T23:59:24.175Z,60.18
